Jose Leonardo Chirinos Airport


Codes: SVCR/CZE
Name: Jose Leonardo Chirinos Airport
City: Coro
Country: Venezuela
Elevation: 52 ft.

Photos at Jose Leonardo Chirinos Airport


   Photos courtesy of SpottingLog. You can add your own sightings and photos by signing up for a free trial today.



No photos found.

Weather at Jose Leonardo Chirinos Airport


Time (UTC)DescriptionTempratureWindCloud coverageVisibilityPressureHumidity
18-Apr-2024 00:00Overcast Clouds30°C16 mph, E87%10000m1008hPa74%
18-Apr-2024 03:00Overcast Clouds28°C11 mph, E95%10000m1009hPa81%
18-Apr-2024 06:00Overcast Clouds27°C11 mph, E91%10000m1009hPa86%
18-Apr-2024 09:00Overcast Clouds26°C9 mph, E86%10000m1009hPa87%
18-Apr-2024 12:00Overcast Clouds27°C11 mph, E93%10000m1011hPa80%
18-Apr-2024 15:00Light Rain31°C13 mph, NE100%10000m1011hPa67%
18-Apr-2024 18:00Overcast Clouds32°C18 mph, NE100%10000m1008hPa64%
18-Apr-2024 21:00Light Rain31°C20 mph, NE100%10000m1007hPa67%
19-Apr-2024 00:00Light Rain27°C16 mph, E100%10000m1010hPa84%
19-Apr-2024 03:00Overcast Clouds27°C11 mph, E100%10000m1011hPa89%
19-Apr-2024 06:00Light Rain27°C11 mph, E100%10000m1010hPa89%
19-Apr-2024 09:00Overcast Clouds26°C9 mph, E100%10000m1010hPa90%
19-Apr-2024 12:00Overcast Clouds27°C9 mph, E100%10000m1011hPa83%
19-Apr-2024 15:00Overcast Clouds30°C11 mph, NE100%10000m1012hPa68%
19-Apr-2024 18:00Light Rain30°C16 mph, NE100%10000m1010hPa72%
19-Apr-2024 21:00Light Rain29°C16 mph, NE100%10000m1009hPa73%
20-Apr-2024 00:00Light Rain27°C11 mph, E100%10000m1011hPa83%
20-Apr-2024 03:00Light Rain27°C9 mph, E100%10000m1012hPa87%
20-Apr-2024 06:00Light Rain26°C9 mph, E94%10000m1011hPa89%
20-Apr-2024 09:00Overcast Clouds26°C7 mph, E100%10000m1011hPa89%
20-Apr-2024 12:00Overcast Clouds27°C9 mph, E100%10000m1013hPa82%
20-Apr-2024 15:00Light Rain29°C11 mph, NE100%10000m1013hPa71%
20-Apr-2024 18:00Light Rain29°C16 mph, NE96%10000m1011hPa74%
20-Apr-2024 21:00Light Rain28°C16 mph, NE100%10000m1010hPa76%
21-Apr-2024 00:00Light Rain27°C11 mph, E100%10000m1012hPa83%
21-Apr-2024 03:00Light Rain26°C9 mph, E87%10000m1013hPa87%
21-Apr-2024 06:00Light Rain26°C9 mph, E79%10000m1012hPa87%
21-Apr-2024 09:00Overcast Clouds26°C9 mph, E100%10000m1011hPa86%
21-Apr-2024 12:00Overcast Clouds27°C9 mph, E100%10000m1013hPa79%
21-Apr-2024 15:00Overcast Clouds30°C11 mph, NE100%10000m1013hPa68%
21-Apr-2024 18:00Overcast Clouds29°C16 mph, NE100%10000m1010hPa70%
21-Apr-2024 21:00Light Rain29°C16 mph, NE61%10000m1008hPa74%
22-Apr-2024 00:00Light Rain27°C13 mph, E34%10000m1011hPa84%
22-Apr-2024 03:00Clear Sky27°C11 mph, E5%10000m1012hPa85%
22-Apr-2024 06:00Clear Sky26°C11 mph, E4%10000m1010hPa85%
22-Apr-2024 09:00Clear Sky26°C11 mph, E8%10000m1010hPa86%
22-Apr-2024 12:00Clear Sky27°C13 mph, E10%10000m1012hPa79%
22-Apr-2024 15:00Few Clouds31°C11 mph, E11%10000m1012hPa62%
22-Apr-2024 18:00Few Clouds32°C18 mph, NE11%10000m1009hPa59%
22-Apr-2024 21:00Scattered Clouds30°C25 mph, E40%10000m1008hPa70%